Time;durP1;ratioP1;P1;durP2;ratioP2;P2;SDS_P1;SDS_P2;PMS_P1;PMS_P2;Temp;Humidity;BMP_temperature;BMP_pressure;BME280_temperature;BME280_humidity;BME280_pressure;Samples;Min_cycle;Max_cycle;Signal;HPM_P1;HPM_P2
2022/04/04 00:02:11;;;;;;;;;21.75;19.50;;;;;10.22;46.15;101999.34;5066950;27;62360;-81
2022/04/04 00:04:37;;;;;;;;;23.00;20.50;;;;;10.19;45.46;101999.13;5081326;28;62041;-81
2022/04/04 00:07:02;;;;;;;;;31.25;23.50;;;;;10.18;45.90;101999.97;5096717;27;63855;-81
2022/04/04 00:09:30;;;;;;;;;19.75;19.25;;;;;10.11;46.11;101997.72;5082907;27;62171;-81
2022/04/04 00:35:30;;;;;;;;;21.00;18.50;;;;;9.72;46.63;101991.66;5074823;28;61958;-81
2022/04/04 00:37:58;;;;;;;;;21.75;18.25;;;;;9.73;46.93;101985.63;5100199;27;61877;-81
2022/04/04 00:40:24;;;;;;;;;19.00;17.50;;;;;9.73;46.59;101983.91;5084234;28;62185;-81
2022/04/04 00:42:49;;;;;;;;;23.50;21.50;;;;;9.77;46.00;101982.41;5083863;28;62686;-81
2022/04/04 00:45:14;;;;;;;;;25.50;20.50;;;;;9.73;46.78;101977.75;5083013;28;61812;-82
2022/04/04 00:47:40;;;;;;;;;28.50;23.75;;;;;9.71;46.50;101982.88;5084374;27;61751;-82
2022/04/04 00:50:06;;;;;;;;;22.50;22.50;;;;;9.70;46.72;101974.91;5084172;27;62065;-81
2022/04/04 00:52:32;;;;;;;;;25.00;24.00;;;;;9.68;46.67;101980.03;5099274;27;63665;-81
2022/04/04 00:54:58;;;;;;;;;29.25;20.75;;;;;9.65;46.26;101977.22;5083996;27;61917;-81
2022/04/04 00:57:24;;;;;;;;;19.25;18.75;;;;;9.66;46.48;101975.50;5084163;27;61914;-82
2022/04/04 00:59:50;;;;;;;;;25.00;20.50;;;;;9.63;47.10;101976.22;5100129;27;61958;-82
2022/04/04 01:02:15;;;;;;;;;23.50;22.00;;;;;9.57;46.91;101978.41;5083144;27;62839;-81
2022/04/04 01:04:41;;;;;;;;;22.25;18.25;;;;;9.51;47.37;101978.00;5083337;28;62030;-82
2022/04/04 01:07:07;;;;;;;;;21.75;18.75;;;;;9.52;46.80;101977.22;5082898;28;61978;-82
2022/04/04 01:09:33;;;;;;;;;21.50;17.50;;;;;9.51;46.64;101975.38;5083649;28;61722;-81
2022/04/04 01:12:12;;;;;;;;;23.00;16.00;;;;;9.50;46.52;101974.47;5083167;27;62756;-81
2022/04/04 01:14:46;;;;;;;;;20.25;18.25;;;;;9.50;46.82;101977.09;5083741;27;62261;-81
2022/04/04 01:17:12;;;;;;;;;22.50;20.25;;;;;9.47;47.07;101969.03;5084029;28;61884;-82
2022/04/04 01:19:38;;;;;;;;;24.25;21.50;;;;;9.47;46.70;101965.50;5083746;28;62164;-82
2022/04/04 01:22:09;;;;;;;;;29.25;21.75;;;;;9.47;47.06;101968.09;5083164;28;61836;-81
2022/04/04 01:24:37;;;;;;;;;28.00;20.67;;;;;9.35;47.56;101971.72;5083392;28;61914;-81
2022/04/04 01:27:03;;;;;;;;;32.25;22.75;;;;;9.35;48.06;101965.56;5083664;27;61992;-81
2022/04/04 01:29:29;;;;;;;;;20.25;14.00;;;;;9.43;47.09;101961.78;5083800;28;61828;-81
2022/04/04 01:31:54;;;;;;;;;26.50;21.75;;;;;9.47;46.70;101958.56;5082961;28;62746;-81
2022/04/04 01:34:22;;;;;;;;;26.50;17.75;;;;;9.50;46.76;101963.09;5083515;27;61879;-81
2022/04/04 01:36:51;;;;;;;;;23.50;18.25;;;;;9.51;46.95;101955.34;5098832;27;61787;-81
2022/04/04 01:39:17;;;;;;;;;22.50;21.00;;;;;9.42;47.36;101954.69;5083332;27;61794;-81
2022/04/04 01:41:43;;;;;;;;;21.00;17.00;;;;;9.42;47.10;101952.97;5082756;28;61934;-81
2022/04/04 01:44:08;;;;;;;;;19.75;17.25;;;;;9.46;46.63;101950.59;5083409;27;61992;-81
2022/04/04 01:46:34;;;;;;;;;18.75;18.00;;;;;9.42;47.17;101946.84;5083506;27;62295;-81
2022/04/04 01:49:02;;;;;;;;;16.00;14.75;;;;;9.38;46.97;101948.38;5083061;28;62547;-81
2022/04/04 01:51:31;;;;;;;;;17.75;16.25;;;;;9.34;47.26;101948.97;5082706;27;62428;-81
2022/04/04 01:53:58;;;;;;;;;21.50;20.75;;;;;9.30;47.47;101941.69;5082805;27;62213;-81
2022/04/04 01:56:23;;;;;;;;;19.50;17.50;;;;;9.31;47.39;101934.72;5083412;27;61721;-81
2022/04/04 01:58:49;;;;;;;;;21.25;16.25;;;;;9.34;46.32;101937.53;5081778;28;61764;-82
2022/04/04 02:01:18;;;;;;;;;19.00;16.50;;;;;9.37;46.74;101930.81;5082604;27;62731;-81
2022/04/04 02:03:47;;;;;;;;;17.25;17.00;;;;;9.37;46.47;101937.78;5077983;28;62280;-81
2022/04/04 02:06:13;;;;;;;;;17.33;16.33;;;;;9.33;47.20;101935.75;5074760;28;62657;-82
2022/04/04 02:08:40;;;;;;;;;17.00;14.00;;;;;9.33;46.77;101927.88;5082937;27;61778;-81
2022/04/04 02:11:05;;;;;;;;;20.00;15.50;;;;;9.36;46.14;101925.44;5082284;27;61955;-81
2022/04/04 02:13:31;;;;;;;;;18.00;16.00;;;;;9.29;47.00;101920.63;5098595;27;62217;-81
2022/04/04 02:16:00;;;;;;;;;19.25;13.00;;;;;9.21;46.92;101921.00;5082931;27;62000;-82
2022/04/04 02:18:27;;;;;;;;;17.50;16.25;;;;;9.14;46.96;101913.50;5082966;27;62204;-81
2022/04/04 02:20:52;;;;;;;;;17.00;16.75;;;;;9.17;46.60;101921.59;5082283;27;63021;-82
2022/04/04 02:23:18;;;;;;;;;17.25;14.00;;;;;9.09;46.82;101917.53;5082529;27;62003;-81
2022/04/04 02:25:45;;;;;;;;;21.75;14.00;;;;;9.09;47.35;101925.41;5115676;27;61678;-82
2022/04/04 02:28:11;;;;;;;;;14.00;12.25;;;;;9.05;46.87;101918.13;5082681;27;62115;-82
2022/04/04 02:30:37;;;;;;;;;17.00;13.00;;;;;9.08;46.87;101913.09;5082322;27;61881;-82
2022/04/04 02:33:03;;;;;;;;;20.50;14.50;;;;;9.06;47.49;101909.50;5081652;28;62128;-82
2022/04/04 02:35:29;;;;;;;;;18.75;17.00;;;;;9.04;47.11;101908.47;5098213;27;61879;-81
2022/04/04 02:37:55;;;;;;;;;13.50;11.00;;;;;9.08;46.69;101900.00;5082529;27;61779;-82
2022/04/04 02:40:21;;;;;;;;;14.00;13.00;;;;;9.12;46.64;101909.88;5081938;28;61772;-82
2022/04/04 02:42:47;;;;;;;;;13.75;12.25;;;;;9.11;46.64;101907.19;5082821;27;61755;-82
2022/04/04 02:45:13;;;;;;;;;17.50;13.00;;;;;9.11;46.49;101900.22;5094581;27;62619;-82
2022/04/04 02:47:39;;;;;;;;;13.00;12.75;;;;;9.10;46.69;101906.25;5062466;28;61966;-82
2022/04/04 02:50:05;;;;;;;;;21.25;13.75;;;;;9.05;47.18;101902.41;5069817;28;62058;-82
2022/04/04 02:52:30;;;;;;;;;14.00;14.00;;;;;9.05;46.30;101894.56;5082358;27;61919;-82
2022/04/04 02:54:56;;;;;;;;;15.75;13.75;;;;;9.01;46.91;101903.91;5082083;28;61799;-82
2022/04/04 02:57:21;;;;;;;;;10.75;9.50;;;;;8.95;47.10;101905.22;5098163;27;62036;-82
2022/04/04 02:59:47;;;;;;;;;13.75;13.75;;;;;8.91;47.55;101901.50;5081817;28;62809;-82
2022/04/04 03:02:12;;;;;;;;;13.50;13.50;;;;;8.90;47.10;101896.13;5094174;27;61949;-82
2022/04/04 03:04:40;;;;;;;;;18.50;11.50;;;;;8.91;46.86;101898.88;5061446;28;61977;-82
2022/04/04 03:07:07;;;;;;;;;14.00;12.00;;;;;8.95;47.12;101894.72;5078349;28;61769;-82
2022/04/04 03:09:33;;;;;;;;;16.00;12.25;;;;;8.99;46.89;101895.03;5096953;27;63982;-82
2022/04/04 03:11:58;;;;;;;;;17.50;15.50;;;;;8.99;46.40;101891.53;5082141;27;61691;-82
2022/04/04 03:14:24;;;;;;;;;13.75;13.75;;;;;9.03;45.77;101900.50;5082009;27;61793;-81
2022/04/04 03:16:50;;;;;;;;;12.75;11.50;;;;;9.05;46.66;101896.28;5082242;27;61866;-82
2022/04/04 03:19:16;;;;;;;;;14.75;12.50;;;;;9.04;46.34;101879.66;5081196;27;61880;-82
2022/04/04 03:21:41;;;;;;;;;18.75;14.25;;;;;9.07;46.28;101881.59;5080640;28;62062;-82
2022/04/04 03:24:07;;;;;;;;;17.75;12.25;;;;;9.08;46.55;101880.75;5081961;28;62031;-82
2022/04/04 03:26:32;;;;;;;;;15.00;13.25;;;;;9.06;46.20;101872.84;5081912;28;62605;-81
2022/04/04 03:28:58;;;;;;;;;13.00;12.50;;;;;9.07;45.85;101876.34;5093551;27;63574;-82
2022/04/04 03:31:23;;;;;;;;;13.75;10.00;;;;;9.06;45.62;101872.84;5061543;28;62057;-82
2022/04/04 03:33:49;;;;;;;;;10.50;10.50;;;;;9.05;46.06;101876.22;5065890;28;61794;-82
2022/04/04 03:36:14;;;;;;;;;13.00;11.00;;;;;9.04;46.50;101868.25;5080379;28;62544;-82
2022/04/04 03:38:40;;;;;;;;;18.00;10.50;;;;;8.98;45.85;101864.44;5080878;28;62779;-82
2022/04/04 03:41:06;;;;;;;;;14.00;12.67;;;;;9.00;46.16;101861.94;5081919;28;62125;-82
2022/04/04 03:43:31;;;;;;;;;17.00;13.75;;;;;9.03;46.24;101858.59;5097865;27;61986;-82
2022/04/04 03:45:58;;;;;;;;;12.75;11.75;;;;;9.05;46.15;101862.25;5101256;27;61825;-81
2022/04/04 03:48:24;;;;;;;;;15.25;12.75;;;;;9.04;46.04;101853.47;5084431;28;61732;-81
2022/04/04 03:50:54;;;;;;;;;19.50;16.00;;;;;9.04;46.09;101855.16;5097395;27;61891;-82
2022/04/04 03:53:21;;;;;;;;;14.00;12.25;;;;;8.99;45.98;101844.38;5064899;28;61789;-81
2022/04/04 03:55:47;;;;;;;;;16.00;10.50;;;;;8.98;45.88;101839.97;5082177;28;61832;-81
2022/04/04 03:58:12;;;;;;;;;13.50;10.00;;;;;8.93;46.16;101842.28;5084533;27;62037;-81
2022/04/04 04:00:39;;;;;;;;;10.00;10.00;;;;;8.92;46.06;101839.56;5084785;27;62178;-82
2022/04/04 04:03:05;;;;;;;;;13.25;12.50;;;;;8.86;45.71;101840.03;5084682;27;61951;-81
2022/04/04 04:05:31;;;;;;;;;17.25;12.75;;;;;8.87;45.79;101840.94;5083503;28;61987;-81
2022/04/04 04:07:56;;;;;;;;;16.50;13.00;;;;;8.85;46.21;101835.63;5084410;28;62050;-81
2022/04/04 04:10:22;;;;;;;;;17.00;12.25;;;;;8.88;45.83;101829.66;5084941;28;62090;-82
2022/04/04 04:12:49;;;;;;;;;5.75;2.00;;;;;8.88;46.23;101820.09;5084843;28;61758;-81
2022/04/04 04:15:20;;;;;;;;;14.00;12.25;;;;;8.89;45.56;101818.38;5085039;27;62025;-82
2022/04/04 04:17:46;;;;;;;;;15.25;10.00;;;;;8.89;45.21;101828.84;5083930;27;62083;-81
2022/04/04 04:20:22;;;;;;;;;16.25;11.50;;;;;8.88;46.32;101821.81;5083290;27;62076;-82
2022/04/04 04:22:52;;;;;;;;;20.00;13.00;;;;;8.91;45.59;101827.25;5084730;28;61857;-81
2022/04/04 04:25:18;;;;;;;;;12.00;12.00;;;;;8.88;45.98;101819.19;5084887;27;61826;-82
2022/04/04 04:27:45;;;;;;;;;20.25;15.50;;;;;8.87;45.68;101815.69;5083966;27;61880;-81
2022/04/04 04:30:13;;;;;;;;;12.00;10.00;;;;;8.88;45.68;101821.81;5117482;27;61978;-81
2022/04/04 04:32:42;;;;;;;;;17.50;12.50;;;;;8.88;45.86;101816.56;5084502;27;61825;-81
2022/04/04 04:35:08;;;;;;;;;14.33;13.00;;;;;8.88;45.81;101816.56;5084442;27;61935;-82
2022/04/04 04:37:34;;;;;;;;;19.33;13.00;;;;;8.87;45.60;101812.13;5083855;27;61786;-82
2022/04/04 04:39:59;;;;;;;;;16.50;14.25;;;;;8.84;45.53;101814.56;5099782;27;62058;-81
2022/04/04 04:42:24;;;;;;;;;14.25;12.25;;;;;8.86;45.80;101812.94;5084545;28;61788;-82
2022/04/04 04:44:51;;;;;;;;;17.00;14.50;;;;;8.86;45.60;101808.59;5084401;28;62310;-82
2022/04/04 04:47:18;;;;;;;;;13.75;13.50;;;;;8.83;46.05;101810.13;5083850;27;62664;-81
2022/04/04 04:49:45;;;;;;;;;10.00;10.00;;;;;8.83;45.48;101802.28;5099728;27;61970;-81
2022/04/04 04:52:11;;;;;;;;;16.75;13.75;;;;;8.84;45.20;101812.84;5096671;27;61777;-82
2022/04/04 04:54:37;;;;;;;;;13.75;9.75;;;;;8.84;45.16;101799.75;5071771;28;61938;-81
2022/04/04 04:57:03;;;;;;;;;13.50;12.00;;;;;8.83;45.33;101797.94;5090114;28;65145;-81
2022/04/04 04:59:28;;;;;;;;;13.50;13.25;;;;;8.84;45.53;101801.47;5086851;28;62217;-82
2022/04/04 05:01:54;;;;;;;;;13.50;13.00;;;;;8.84;45.96;101801.47;5099309;27;61926;-81
2022/04/04 05:04:19;;;;;;;;;16.50;15.50;;;;;8.79;45.50;101801.16;5082612;28;62112;-81
2022/04/04 05:06:49;;;;;;;;;21.00;14.25;;;;;8.77;45.96;101805.38;5083218;28;62015;-82
2022/04/04 05:09:16;;;;;;;;;17.00;15.00;;;;;8.71;45.39;101802.34;5083704;27;62030;-81
2022/04/04 05:11:41;;;;;;;;;12.25;12.25;;;;;8.73;45.44;101805.97;5082381;28;61904;-79
2022/04/04 05:14:07;;;;;;;;;19.25;15.50;;;;;8.73;45.97;101796.41;5086585;27;62084;-79
2022/04/04 05:16:32;;;;;;;;;21.75;14.00;;;;;8.72;45.93;101807.69;5083650;27;61869;-80
2022/04/04 05:18:57;;;;;;;;;16.75;15.75;;;;;8.71;45.97;101792.78;5082878;27;61826;-79
2022/04/04 05:21:23;;;;;;;;;12.50;12.50;;;;;8.73;45.95;101800.72;5099081;27;61929;-79
2022/04/04 05:23:49;;;;;;;;;19.25;12.75;;;;;8.73;45.47;101801.63;5098371;27;61883;-79
2022/04/04 05:26:14;;;;;;;;;27.00;16.50;;;;;8.74;45.99;101798.22;5103232;27;63583;-78
2022/04/04 05:28:39;;;;;;;;;15.50;14.25;;;;;8.75;46.11;101804.38;5083537;27;61900;-79
2022/04/04 05:31:05;;;;;;;;;16.50;15.25;;;;;8.72;45.85;101802.44;5082794;27;62167;-80
2022/04/04 05:33:31;;;;;;;;;14.50;11.50;;;;;8.72;46.20;101798.91;5081143;28;62010;-79
2022/04/04 05:35:57;;;;;;;;;23.25;14.25;;;;;8.71;46.55;101805.84;5098421;27;64757;-79
2022/04/04 05:38:22;;;;;;;;;18.00;18.00;;;;;8.73;46.18;101801.63;5082212;27;61924;-79
2022/04/04 05:40:47;;;;;;;;;20.33;17.00;;;;;8.77;45.56;101802.75;5097774;27;61788;-78
2022/04/04 05:43:13;;;;;;;;;20.25;16.50;;;;;8.74;46.34;101800.84;5082624;28;61817;-78
2022/04/04 05:45:39;;;;;;;;;20.25;18.50;;;;;8.73;46.31;101800.72;5097953;27;63456;-79
2022/04/04 05:48:06;;;;;;;;;27.75;20.75;;;;;8.73;46.26;101800.72;5082122;28;61777;-79
2022/04/04 05:50:32;;;;;;;;;21.50;15.50;;;;;8.76;46.14;101793.06;5089278;27;62003;-78
2022/04/04 05:52:58;;;;;;;;;18.75;16.25;;;;;8.75;46.47;101792.19;5082221;28;61911;-78
2022/04/04 05:55:23;;;;;;;;;17.00;17.00;;;;;8.78;46.25;101786.22;5095805;27;64816;-78
2022/04/04 05:57:49;;;;;;;;;17.50;16.25;;;;;8.79;46.26;101794.19;5081708;27;61767;-78
2022/04/04 06:00:15;;;;;;;;;21.00;19.25;;;;;8.79;46.04;101796.81;5097657;27;62144;-79
2022/04/04 06:02:42;;;;;;;;;15.00;14.00;;;;;8.84;45.66;101793.59;5086433;27;61974;-78
2022/04/04 06:05:08;;;;;;;;;23.00;18.25;;;;;8.86;46.03;101792.00;5081780;28;62609;-77
2022/04/04 06:07:35;;;;;;;;;18.00;14.50;;;;;8.85;45.64;101785.88;5081545;28;62039;-78
2022/04/04 06:10:01;;;;;;;;;28.00;24.00;;;;;8.90;45.10;101788.78;5082354;28;61964;-79
2022/04/04 06:12:26;;;;;;;;;25.00;20.00;;;;;8.92;45.19;101785.47;5080619;28;62169;-79
2022/04/04 06:14:51;;;;;;;;;19.50;17.00;;;;;8.95;45.13;101787.38;5081413;28;62830;-78
2022/04/04 06:17:17;;;;;;;;;19.75;17.50;;;;;9.03;45.73;101793.13;5082288;27;61850;-80
2022/04/04 06:19:43;;;;;;;;;16.75;15.25;;;;;9.03;45.13;101790.53;5114908;27;61930;-77
2022/04/04 06:22:09;;;;;;;;;29.33;23.00;;;;;9.07;45.42;101792.53;5082195;27;61906;-76
2022/04/04 06:24:35;;;;;;;;;22.50;16.00;;;;;9.09;45.13;101786.59;5081553;27;62511;-81
2022/04/04 06:27:01;;;;;;;;;13.00;13.00;;;;;9.14;45.68;101787.78;5082139;27;61798;-77
2022/04/04 06:29:28;;;;;;;;;22.00;17.75;;;;;9.20;45.21;101776.81;5114544;27;61892;-76
2022/04/04 06:31:54;;;;;;;;;20.00;16.33;;;;;9.23;45.39;101782.25;5082547;28;61895;-80
2022/04/04 06:34:20;;;;;;;;;27.33;18.33;;;;;9.24;45.30;101781.47;5081583;27;61894;-81
2022/04/04 06:36:46;;;;;;;;;21.50;15.00;;;;;9.30;44.82;101779.25;5080309;28;62374;-80
2022/04/04 06:39:12;;;;;;;;;25.75;20.50;;;;;9.42;44.43;101782.66;5081700;27;61974;-78
2022/04/04 06:41:38;;;;;;;;;21.25;13.50;;;;;9.48;44.44;101773.38;5079913;27;62177;-77
2022/04/04 06:44:05;;;;;;;;;14.00;13.00;;;;;9.50;44.39;101783.16;5076368;28;62018;-77
2022/04/04 06:46:31;;;;;;;;;14.50;13.75;;;;;9.60;43.95;101777.69;5079323;28;61732;-77
2022/04/04 06:48:57;;;;;;;;;15.50;14.50;;;;;9.75;44.01;101771.63;5076729;28;61936;-78
2022/04/04 06:51:25;;;;;;;;;19.00;16.50;;;;;10.00;43.38;101767.13;5095885;27;62591;-77
2022/04/04 06:53:55;;;;;;;;;14.75;12.25;;;;;10.30;42.71;101764.59;5078830;28;61870;-77
2022/04/04 06:56:22;;;;;;;;;21.50;16.50;;;;;10.77;41.77;101769.16;5095432;27;61959;-77
2022/04/04 06:58:49;;;;;;;;;17.25;10.25;;;;;11.10;40.59;101760.53;5080435;27;61981;-76
2022/04/04 07:01:14;;;;;;;;;12.75;11.25;;;;;11.24;40.32;101757.00;5081595;27;61908;-77
2022/04/04 07:03:40;;;;;;;;;14.75;12.00;;;;;11.55;39.83;101746.50;5080536;27;61966;-77
2022/04/04 07:06:07;;;;;;;;;19.00;11.25;;;;;11.78;39.31;101744.22;5081734;27;61933;-77
2022/04/04 07:08:33;;;;;;;;;13.75;13.25;;;;;12.10;38.79;101747.75;5077801;28;61742;-77
2022/04/04 07:11:00;;;;;;;;;8.00;8.00;;;;;12.24;38.19;101737.13;5077370;28;61762;-76
2022/04/04 07:13:25;;;;;;;;;11.00;8.25;;;;;12.30;37.06;101733.94;5078438;27;62518;-77
2022/04/04 07:15:51;;;;;;;;;8.75;6.00;;;;;12.42;37.10;101738.91;5094012;27;62081;-77
2022/04/04 07:18:18;;;;;;;;;12.00;9.75;;;;;12.96;35.40;101733.75;5081417;27;61940;-76
2022/04/04 07:20:43;;;;;;;;;9.75;7.00;;;;;13.47;35.70;101727.53;5085438;27;62034;-76
2022/04/04 07:23:09;;;;;;;;;6.25;6.25;;;;;13.54;34.07;101722.53;5084436;28;62246;-77
2022/04/04 07:25:35;;;;;;;;;6.75;6.75;;;;;13.72;34.24;101714.59;5085020;27;61818;-77
2022/04/04 07:28:01;;;;;;;;;6.75;5.50;;;;;13.75;33.39;101712.06;5084202;27;61785;-79
2022/04/04 07:30:26;;;;;;;;;9.25;6.75;;;;;13.75;33.76;101712.06;5085134;27;62141;-78
2022/04/04 07:32:53;;;;;;;;;7.25;6.75;;;;;13.54;33.97;101704.97;5083522;27;62734;-79
2022/04/04 07:35:20;;;;;;;;;9.50;7.00;;;;;13.34;34.13;101711.94;5082762;27;61794;-79
2022/04/04 07:37:47;;;;;;;;;8.75;6.75;;;;;13.08;33.54;101715.91;5084737;28;61837;-79
2022/04/04 07:40:15;;;;;;;;;5.25;4.75;;;;;12.95;34.67;101705.59;5085055;28;61806;-78
2022/04/04 07:42:42;;;;;;;;;7.75;7.50;;;;;12.87;33.95;101697.28;5084188;27;61840;-78
2022/04/04 07:45:10;;;;;;;;;11.50;8.00;;;;;12.75;34.52;101702.88;5084650;27;62002;-78
2022/04/04 07:47:37;;;;;;;;;10.50;8.00;;;;;12.85;34.56;101702.50;5083285;27;61782;-78
2022/04/04 07:50:04;;;;;;;;;5.75;5.75;;;;;12.82;33.99;101693.53;5084279;28;62028;-78
2022/04/04 07:52:30;;;;;;;;;6.75;5.00;;;;;12.86;34.06;101699.03;5083662;27;61893;-79
2022/04/04 07:54:55;;;;;;;;;6.25;5.00;;;;;12.80;33.38;101692.56;5083819;28;61944;-78
2022/04/04 07:57:21;;;;;;;;;6.00;4.25;;;;;12.61;33.18;101689.00;5084921;27;62463;-78
2022/04/04 07:59:47;;;;;;;;;6.00;6.00;;;;;12.78;33.80;101686.31;5084770;28;61969;-78
2022/04/04 08:02:12;;;;;;;;;7.50;7.00;;;;;12.82;33.23;101681.25;5083269;28;62923;-79
2022/04/04 08:04:38;;;;;;;;;8.25;4.00;;;;;12.88;33.65;101676.31;5084475;27;61951;-78
2022/04/04 08:07:04;;;;;;;;;4.25;4.25;;;;;12.91;33.25;101675.53;5084291;27;61896;-78
2022/04/04 08:09:30;;;;;;;;;2.75;2.75;;;;;12.91;33.47;101672.00;5083525;28;61782;-78
2022/04/04 08:11:56;;;;;;;;;3.00;3.00;;;;;12.76;33.53;101683.59;5116061;27;64839;-78
2022/04/04 08:14:23;;;;;;;;;6.25;5.50;;;;;12.88;32.70;101672.78;5084376;27;61881;-79
2022/04/04 08:16:50;;;;;;;;;4.00;4.00;;;;;13.05;32.98;101666.59;5084165;27;61887;-78
2022/04/04 08:19:16;;;;;;;;;7.75;6.00;;;;;13.20;33.11;101665.53;5084018;27;62129;-78
2022/04/04 08:21:42;;;;;;;;;5.00;3.00;;;;;13.03;32.84;101662.06;5083849;27;62766;-78
2022/04/04 08:24:08;;;;;;;;;3.50;3.50;;;;;13.12;33.00;101665.16;5083280;28;62123;-78
2022/04/04 08:26:35;;;;;;;;;5.00;5.00;;;;;13.21;32.60;101656.78;5117131;27;61990;-78
2022/04/04 08:29:01;;;;;;;;;6.00;4.25;;;;;13.34;32.59;101664.47;5084054;27;62090;-78
2022/04/04 08:31:26;;;;;;;;;4.00;4.00;;;;;13.48;32.46;101652.84;5082763;27;61923;-78
2022/04/04 08:33:52;;;;;;;;;7.00;5.00;;;;;13.44;32.17;101645.59;5083673;28;62004;-78
2022/04/04 08:36:18;;;;;;;;;5.00;4.25;;;;;13.32;32.18;101652.03;5083972;27;61824;-78
2022/04/04 08:38:43;;;;;;;;;5.00;2.00;;;;;13.33;32.04;101651.22;5083930;28;61894;-78
2022/04/04 08:41:10;;;;;;;;;3.25;2.50;;;;;13.15;31.95;101641.56;5099059;27;63536;-78
2022/04/04 08:43:44;;;;;;;;;7.50;6.50;;;;;13.51;32.43;101638.88;5099920;27;61907;-79
2022/04/04 08:46:11;;;;;;;;;6.00;6.00;;;;;13.54;31.59;101636.41;5083686;28;61953;-79
2022/04/04 08:48:40;;;;;;;;;9.50;8.00;;;;;13.75;32.00;101628.53;5083944;27;61921;-77
2022/04/04 08:51:09;;;;;;;;;12.25;11.00;;;;;13.78;31.97;101628.69;5083255;27;62768;-78
2022/04/04 08:53:39;;;;;;;;;8.25;3.75;;;;;13.80;32.29;101631.41;5098864;27;61931;-78
2022/04/04 08:56:06;;;;;;;;;3.75;3.75;;;;;13.80;31.22;101632.31;5083647;27;62034;-78
2022/04/04 08:58:33;;;;;;;;;2.00;2.00;;;;;13.86;30.98;101626.38;5083784;28;61706;-78
2022/04/04 09:00:59;;;;;;;;;2.50;2.50;;;;;13.93;30.95;101623.19;5082458;28;61942;-78
2022/04/04 09:03:33;;;;;;;;;5.00;2.50;;;;;13.95;31.37;101624.16;5082928;27;62170;-78
2022/04/04 09:06:01;;;;;;;;;3.00;3.00;;;;;13.88;30.42;101617.72;5082869;28;61847;-79
2022/04/04 09:08:30;;;;;;;;;2.50;1.00;;;;;13.92;30.56;101610.81;5083022;28;61997;-78
2022/04/04 09:11:00;;;;;;;;;2.00;2.00;;;;;14.12;31.06;101611.69;5082429;27;61957;-77
2022/04/04 09:13:27;;;;;;;;;3.00;2.00;;;;;14.11;31.04;101610.78;5082083;28;61827;-78
2022/04/04 09:15:55;;;;;;;;;3.00;3.00;;;;;14.20;31.03;101609.38;5083546;27;61909;-78
2022/04/04 09:18:36;;;;;;;;;3.50;3.50;;;;;14.23;30.41;101605.13;5083341;28;61878;-78
2022/04/04 09:21:07;;;;;;;;;2.00;2.00;;;;;14.33;30.24;101606.41;5083097;27;62073;-78
2022/04/04 09:23:46;;;;;;;;;3.00;3.00;;;;;14.49;29.75;101594.75;5082941;28;62012;-78
2022/04/04 09:26:29;;;;;;;;;1.00;1.00;;;;;14.75;30.42;101592.31;5084306;28;62273;-77
2022/04/04 09:28:59;;;;;;;;;1.75;1.00;;;;;14.73;28.66;101584.31;5084094;28;61880;-78
2022/04/04 09:31:25;;;;;;;;;4.00;1.75;;;;;14.80;28.71;101582.81;5082296;27;62901;-78
2022/04/04 09:33:51;;;;;;;;;1.50;1.50;;;;;14.75;30.33;101577.34;5082911;28;61981;-78
2022/04/04 09:36:17;;;;;;;;;2.75;2.75;;;;;14.77;28.99;101577.44;5083075;27;62113;-78
2022/04/04 09:38:53;;;;;;;;;2.00;2.00;;;;;14.70;29.10;101573.63;5082901;27;62085;-78
2022/04/04 09:41:24;;;;;;;;;2.00;2.00;;;;;14.73;27.97;101577.28;5080669;27;61829;-78
2022/04/04 09:43:54;;;;;;;;;1.00;1.00;;;;;14.75;28.97;101574.72;5098656;27;62099;-77
2022/04/04 09:46:20;;;;;;;;;2.00;2.00;;;;;14.49;27.67;101571.00;5083108;28;62084;-78
2022/04/04 09:49:20;;;;;;;;;2.00;2.00;;;;;14.44;27.58;101570.81;5082720;27;62096;-78
2022/04/04 09:51:51;;;;;;;;;2.00;1.00;;;;;14.46;27.26;101569.13;5081889;27;62139;-78
2022/04/04 09:54:19;;;;;;;;;1.00;1.00;;;;;14.42;27.28;101566.31;5082658;27;62046;-78
2022/04/04 09:56:47;;;;;;;;;2.00;2.00;;;;;14.29;27.73;101556.97;5082172;27;61842;-78
2022/04/04 09:59:17;;;;;;;;;3.00;1.75;;;;;14.35;27.72;101548.38;5082344;28;61796;-77
2022/04/04 10:01:45;;;;;;;;;3.50;1.75;;;;;14.27;27.12;101553.38;5080699;27;61950;-79
2022/04/04 10:04:14;;;;;;;;;5.50;2.50;;;;;14.20;27.17;101554.81;5080848;27;61933;-78
2022/04/04 10:06:47;;;;;;;;;1.25;1.25;;;;;14.31;27.41;101542.97;5082035;27;62087;-79
2022/04/04 10:09:13;;;;;;;;;2.00;2.00;;;;;14.47;27.58;101538.31;5082356;28;61710;-76
2022/04/04 10:11:40;;;;;;;;;1.75;1.00;;;;;14.71;27.67;101541.06;5081771;28;61922;-75
2022/04/04 10:14:06;;;;;;;;;3.00;1.75;;;;;14.86;26.83;101531.09;5080896;28;61799;-77
2022/04/04 10:16:32;;;;;;;;;1.50;1.50;;;;;15.02;26.20;101531.72;5082698;28;62261;-76
2022/04/04 10:18:58;;;;;;;;;1.00;1.00;;;;;15.15;26.30;101526.03;5081941;28;61827;-78
2022/04/04 10:21:26;;;;;;;;;4.00;2.75;;;;;15.41;26.03;101523.47;5081869;27;61963;-78
2022/04/04 10:23:58;;;;;;;;;3.25;2.00;;;;;15.52;25.83;101530.03;5082495;27;62188;-78
2022/04/04 10:26:33;;;;;;;;;3.00;2.00;;;;;15.78;25.28;101523.06;5081013;28;62005;-78
2022/04/04 10:29:16;;;;;;;;;3.00;1.00;;;;;16.10;25.23;101510.91;5097821;27;62220;-78
2022/04/04 10:31:53;;;;;;;;;3.00;3.00;;;;;16.39;24.88;101503.03;5081686;27;61898;-78
2022/04/04 10:34:24;;;;;;;;;2.00;1.75;;;;;16.59;24.56;101500.13;5081827;27;61871;-78
2022/04/04 10:37:01;;;;;;;;;4.00;2.00;;;;;16.79;24.56;101492.75;5083039;28;61872;-75
2022/04/04 10:39:36;;;;;;;;;1.50;1.50;;;;;16.90;24.01;101496.66;5097600;27;62194;-78
2022/04/04 10:42:03;;;;;;;;;3.50;1.75;;;;;16.84;24.14;101484.13;5081474;28;61962;-77
2022/04/04 10:44:49;;;;;;;;;4.00;2.50;;;;;17.27;24.40;101480.09;5081947;27;61883;-78
2022/04/04 10:47:22;;;;;;;;;2.00;2.00;;;;;17.64;24.24;101473.13;5082118;27;61770;-75
2022/04/04 10:49:48;;;;;;;;;2.00;2.00;;;;;17.79;24.00;101467.31;5081675;27;61706;-75
2022/04/04 10:52:18;;;;;;;;;2.50;2.25;;;;;17.76;23.23;101469.91;5106189;27;63665;-75
2022/04/04 10:54:43;;;;;;;;;3.50;3.50;;;;;17.94;23.81;101466.84;5096468;27;62047;-75
2022/04/04 10:57:19;;;;;;;;;2.00;2.00;;;;;18.14;24.13;101457.59;5080944;27;62042;-76
2022/04/04 10:59:46;;;;;;;;;1.50;1.50;;;;;18.13;23.24;101465.53;5081480;27;61959;-76
2022/04/04 11:02:15;;;;;;;;;2.00;2.00;;;;;18.01;22.22;101452.84;5079657;27;62033;-76
2022/04/04 11:07:39;;;;;;;;;2.75;2.00;;;;;18.12;23.54;101446.06;5079825;28;62051;-76
2022/04/04 11:10:06;;;;;;;;;3.00;3.00;;;;;18.15;22.59;101450.53;5081024;27;61910;-76
2022/04/04 11:13:05;;;;;;;;;4.00;3.00;;;;;18.43;23.60;101438.78;5080484;27;62516;-76
2022/04/04 11:15:53;;;;;;;;;3.50;3.50;;;;;18.23;22.77;101427.72;5081240;28;62072;-77
2022/04/04 11:18:19;;;;;;;;;3.25;2.75;;;;;18.41;23.11;101428.97;5096728;27;61879;-76
2022/04/04 11:20:49;;;;;;;;;6.00;5.25;;;;;18.68;23.43;101428.66;5081242;27;62064;-76
2022/04/04 11:23:16;;;;;;;;;4.75;2.75;;;;;18.75;23.09;101412.88;5080386;27;62488;-76
2022/04/04 11:25:52;;;;;;;;;2.75;2.75;;;;;18.97;23.63;101406.28;5075812;28;61845;-77
2022/04/04 11:28:30;;;;;;;;;2.00;2.00;;;;;18.93;22.80;101415.06;5069988;28;62471;-78
2022/04/04 11:31:06;;;;;;;;;5.00;5.00;;;;;18.66;23.18;101415.38;5081001;27;61691;-77
2022/04/04 11:33:34;;;;;;;;;4.50;4.00;;;;;18.68;23.18;101412.72;5077760;28;62035;-77
2022/04/04 11:36:03;;;;;;;;;6.00;3.00;;;;;18.64;22.86;101417.09;5080773;27;62090;-76
2022/04/04 11:38:36;;;;;;;;;3.00;3.00;;;;;18.82;23.11;101395.31;5081200;27;62139;-76
2022/04/04 11:41:11;;;;;;;;;9.25;7.00;;;;;18.86;22.99;101393.63;5081685;27;61675;-78
2022/04/04 11:43:37;;;;;;;;;4.75;4.75;;;;;19.11;23.43;101390.59;5096146;27;63923;-79
2022/04/04 11:46:03;;;;;;;;;5.75;2.50;;;;;19.61;23.28;101390.59;5081272;28;61714;-78
2022/04/04 11:48:28;;;;;;;;;3.75;3.25;;;;;19.70;22.78;101384.56;5081084;28;62345;-78